EDT,Max TemperatureF,Mean TemperatureF,Min TemperatureF,Max Dew PointF,MeanDew PointF,Min DewpointF,Max Humidity, Mean Humidity, Min Humidity, Max Sea Level PressureIn, Mean Sea Level PressureIn, Min Sea Level PressureIn, Max VisibilityMiles, Mean VisibilityMiles, Min VisibilityMiles, Max Wind SpeedMPH, Mean Wind SpeedMPH, Max Gust SpeedMPH,PrecipitationIn, CloudCover, Events, WindDirDegrees
2012-8-1,83,72,61,63,60,57,93,68,43,29.97,29.94,29.89,10,10,10,14,3,16,0.00,0,,345
2012-8-2,89,77,65,68,63,60,87,66,45,29.92,29.89,29.84,10,10,10,14,3,16,0.00,0,,243
2012-8-3,92,81,70,68,65,62,90,66,41,29.93,29.89,29.85,10,10,6,10,3,16,0.00,0,Rain,148
2012-8-4,90,80,70,75,69,64,93,76,59,29.96,29.90,29.80,10,8,0,45,7,66,1.35,3,Rain-Thunderstorm,188
2012-8-5,79,70,61,70,65,54,93,70,47,30.16,30.00,29.88,10,8,2,21,10,26,0.47,4,Rain-Thunderstorm,293
2012-8-6,81,68,54,59,55,52,93,68,42,30.19,30.13,30.03,10,10,10,9,2,18,0.00,0,,189
2012-8-7,86,74,61,65,60,55,84,64,44,30.01,29.97,29.91,10,10,10,13,5,16,0.00,0,,214
2012-8-8,86,76,66,66,63,60,87,66,44,29.99,29.96,29.91,10,10,10,12,4,15,T,2,Rain,22
2012-8-9,72,67,61,65,62,59,93,83,73,29.94,29.89,29.81,10,9,5,17,7,22,0.10,6,Rain,48
2012-8-10,66,62,58,61,57,52,93,78,63,29.92,29.85,29.78,10,9,3,32,14,40,0.07,8,Rain,352
2012-8-11,73,65,57,63,59,54,93,80,66,30.01,29.94,29.89,10,9,2,21,10,29,0.24,6,Rain,314
2012-8-12,76,65,54,61,56,53,93,72,50,30.06,30.02,30.00,10,10,9,13,3,22,0.00,1,,236
2012-8-13,68,65,62,62,60,57,93,81,68,30.02,29.98,29.95,10,6,2,7,3,10,0.94,8,Rain,81
2012-8-14,79,70,60,62,60,58,97,73,48,29.97,29.94,29.91,10,7,0,12,4,15,0.01,6,Fog-Rain,3
2012-8-15,83,73,63,65,62,60,93,70,47,29.98,29.94,29.92,10,10,7,14,5,16,0.00,2,,217
2012-8-16,72,68,63,67,62,57,93,80,66,29.96,29.89,29.82,10,8,1,20,9,28,0.47,4,Rain-Thunderstorm,216
2012-8-17,72,62,52,61,55,49,93,73,53,30.03,29.97,29.90,10,10,9,20,7,23,0.00,2,,317
2012-8-18,75,61,47,53,48,44,93,64,35,30.06,30.02,29.96,10,10,10,14,2,16,0.00,0,,347
2012-8-19,77,66,55,55,52,50,86,64,41,29.99,29.95,29.92,10,10,10,13,3,20,0.00,1,,341
2012-8-20,76,66,55,58,55,52,93,71,49,30.01,29.97,29.95,10,9,2,16,2,20,0.38,4,Rain-Thunderstorm,277
2012-8-21,77,65,52,56,53,49,93,68,43,30.12,30.07,30.01,10,9,0,12,3,15,0.00,1,Fog,336
2012-8-22,80,66,52,59,53,48,89,64,39,30.17,30.12,30.08,10,10,10,9,2,14,0.00,0,,209
2012-8-23,85,72,58,60,56,52,80,60,40,30.15,30.10,30.06,10,10,9,13,5,15,0.00,0,,181
2012-8-24,88,77,65,62,59,56,73,57,40,30.09,30.05,30.02,10,10,10,13,7,16,0.00,0,,170
2012-8-25,90,79,67,63,59,57,68,51,34,30.11,30.06,30.03,10,10,10,12,5,14,0.00,1,,162
2012-8-26,87,77,66,71,65,60,93,71,48,30.09,30.05,30.00,10,10,2,22,6,28,0.30,3,Rain,166
2012-8-27,82,73,63,70,67,56,100,71,42,30.08,30.01,29.96,10,7,2,16,8,23,0.93,6,Rain,1
2012-8-28,81,70,58,60,58,55,93,71,48,30.15,30.10,30.05,10,10,10,14,4,18,0.00,0,,336
2012-8-29,82,70,57,60,58,55,93,69,45,30.12,30.08,30.03,10,10,5,8,2,12,0.00,0,,77
2012-8-30,84,71,57,61,58,53,90,67,43,30.10,30.05,29.99,10,10,10,15,6,18,0.00,0,,184
2012-8-31,90,77,64,73,65,55,87,71,55,30.09,30.04,30.01,10,10,10,16,8,22,0.00,0,,225